sensor_id;sensor_type;location;lat;lon;timestamp;temperature;humidity
71436;SHT31;59251;51.326;12.370;2023-05-20T00:01:57;12.10;84.84
71436;SHT31;59251;51.326;12.370;2023-05-20T00:04:23;12.09;84.97
71436;SHT31;59251;51.326;12.370;2023-05-20T00:06:48;12.07;85.10
71436;SHT31;59251;51.326;12.370;2023-05-20T00:09:13;12.05;85.13
71436;SHT31;59251;51.326;12.370;2023-05-20T00:11:41;12.06;85.12
71436;SHT31;59251;51.326;12.370;2023-05-20T00:14:06;12.12;85.07
71436;SHT31;59251;51.326;12.370;2023-05-20T00:16:31;12.07;85.13
71436;SHT31;59251;51.326;12.370;2023-05-20T00:18:57;12.07;85.30
71436;SHT31;59251;51.326;12.370;2023-05-20T00:21:22;12.13;85.20
71436;SHT31;59251;51.326;12.370;2023-05-20T00:23:47;12.07;85.29
71436;SHT31;59251;51.326;12.370;2023-05-20T00:26:13;12.10;85.40
71436;SHT31;59251;51.326;12.370;2023-05-20T00:28:38;12.05;85.65
71436;SHT31;59251;51.326;12.370;2023-05-20T00:31:03;12.07;85.51
71436;SHT31;59251;51.326;12.370;2023-05-20T00:33:29;12.13;85.55
71436;SHT31;59251;51.326;12.370;2023-05-20T00:35:55;12.12;85.58
71436;SHT31;59251;51.326;12.370;2023-05-20T00:38:20;12.12;85.69
71436;SHT31;59251;51.326;12.370;2023-05-20T00:40:45;12.10;85.76
71436;SHT31;59251;51.326;12.370;2023-05-20T00:43:11;12.10;85.91
71436;SHT31;59251;51.326;12.370;2023-05-20T00:45:36;12.12;85.88
71436;SHT31;59251;51.326;12.370;2023-05-20T00:48:02;12.12;86.02
71436;SHT31;59251;51.326;12.370;2023-05-20T00:50:28;12.09;86.03
71436;SHT31;59251;51.326;12.370;2023-05-20T00:52:54;12.14;86.12
71436;SHT31;59251;51.326;12.370;2023-05-20T00:55:20;12.14;85.99
71436;SHT31;59251;51.326;12.370;2023-05-20T00:57:49;12.19;85.86
71436;SHT31;59251;51.326;12.370;2023-05-20T01:00:15;12.23;85.87
71436;SHT31;59251;51.326;12.370;2023-05-20T01:02:40;12.17;85.98
71436;SHT31;59251;51.326;12.370;2023-05-20T01:05:06;12.23;85.87
71436;SHT31;59251;51.326;12.370;2023-05-20T01:07:32;12.30;85.76
71436;SHT31;59251;51.326;12.370;2023-05-20T01:09:58;12.29;85.88
71436;SHT31;59251;51.326;12.370;2023-05-20T01:12:39;12.26;86.07
71436;SHT31;59251;51.326;12.370;2023-05-20T01:15:11;12.34;85.94
71436;SHT31;59251;51.326;12.370;2023-05-20T01:17:44;12.43;85.61
71436;SHT31;59251;51.326;12.370;2023-05-20T01:20:12;12.36;85.82
71436;SHT31;59251;51.326;12.370;2023-05-20T01:22:45;12.40;85.69
71436;SHT31;59251;51.326;12.370;2023-05-20T01:25:11;12.50;85.48
71436;SHT31;59251;51.326;12.370;2023-05-20T01:27:36;12.40;85.90
71436;SHT31;59251;51.326;12.370;2023-05-20T01:30:02;12.36;86.03
71436;SHT31;59251;51.326;12.370;2023-05-20T01:32:32;12.43;86.00
71436;SHT31;59251;51.326;12.370;2023-05-20T01:34:59;12.40;85.95
71436;SHT31;59251;51.326;12.370;2023-05-20T01:37:26;12.41;85.93
71436;SHT31;59251;51.326;12.370;2023-05-20T01:39:52;12.43;86.07
71436;SHT31;59251;51.326;12.370;2023-05-20T01:42:19;12.43;86.11
71436;SHT31;59251;51.326;12.370;2023-05-20T01:44:45;12.48;85.87
71436;SHT31;59251;51.326;12.370;2023-05-20T01:47:10;12.44;86.05
71436;SHT31;59251;51.326;12.370;2023-05-20T01:49:36;12.47;86.01
71436;SHT31;59251;51.326;12.370;2023-05-20T01:52:03;12.45;86.05
71436;SHT31;59251;51.326;12.370;2023-05-20T01:54:28;12.44;86.12
71436;SHT31;59251;51.326;12.370;2023-05-20T01:56:54;12.43;86.16
71436;SHT31;59251;51.326;12.370;2023-05-20T01:59:19;12.45;86.32
71436;SHT31;59251;51.326;12.370;2023-05-20T02:01:45;12.47;86.12
71436;SHT31;59251;51.326;12.370;2023-05-20T02:04:10;12.47;86.32
71436;SHT31;59251;51.326;12.370;2023-05-20T02:06:36;12.43;86.45
71436;SHT31;59251;51.326;12.370;2023-05-20T02:09:01;12.45;86.36
71436;SHT31;59251;51.326;12.370;2023-05-20T02:11:26;12.45;86.35
71436;SHT31;59251;51.326;12.370;2023-05-20T02:13:52;12.43;86.59
71436;SHT31;59251;51.326;12.370;2023-05-20T02:16:17;12.45;86.55
71436;SHT31;59251;51.326;12.370;2023-05-20T02:18:42;12.41;86.56
71436;SHT31;59251;51.326;12.370;2023-05-20T02:21:08;12.48;86.51
71436;SHT31;59251;51.326;12.370;2023-05-20T02:23:33;12.43;86.61
71436;SHT31;59251;51.326;12.370;2023-05-20T02:25:59;12.48;86.48
71436;SHT31;59251;51.326;12.370;2023-05-20T02:28:25;12.48;86.63
71436;SHT31;59251;51.326;12.370;2023-05-20T02:30:50;12.44;86.77
71436;SHT31;59251;51.326;12.370;2023-05-20T02:33:16;12.41;86.79
71436;SHT31;59251;51.326;12.370;2023-05-20T02:35:41;12.36;87.00
71436;SHT31;59251;51.326;12.370;2023-05-20T02:38:07;12.45;86.84
71436;SHT31;59251;51.326;12.370;2023-05-20T02:40:32;12.50;86.61
71436;SHT31;59251;51.326;12.370;2023-05-20T02:42:59;12.45;86.70
71436;SHT31;59251;51.326;12.370;2023-05-20T02:45:24;12.40;86.91
71436;SHT31;59251;51.326;12.370;2023-05-20T02:47:50;12.43;86.80
71436;SHT31;59251;51.326;12.370;2023-05-20T02:50:15;12.38;86.99
71436;SHT31;59251;51.326;12.370;2023-05-20T02:52:40;12.38;86.95
71436;SHT31;59251;51.326;12.370;2023-05-20T02:55:07;12.41;86.86
71436;SHT31;59251;51.326;12.370;2023-05-20T02:57:33;12.38;86.82
71436;SHT31;59251;51.326;12.370;2023-05-20T03:00:05;12.40;86.98
71436;SHT31;59251;51.326;12.370;2023-05-20T03:02:32;12.41;87.02
71436;SHT31;59251;51.326;12.370;2023-05-20T03:04:58;12.38;87.20
71436;SHT31;59251;51.326;12.370;2023-05-20T03:07:23;12.37;87.12
71436;SHT31;59251;51.326;12.370;2023-05-20T03:09:49;12.33;87.24
71436;SHT31;59251;51.326;12.370;2023-05-20T03:12:14;12.41;87.08
71436;SHT31;59251;51.326;12.370;2023-05-20T03:14:40;12.33;87.36
71436;SHT31;59251;51.326;12.370;2023-05-20T03:17:05;12.29;87.46
71436;SHT31;59251;51.326;12.370;2023-05-20T03:19:30;12.23;87.65
71436;SHT31;59251;51.326;12.370;2023-05-20T03:21:56;12.27;87.66
71436;SHT31;59251;51.326;12.370;2023-05-20T03:24:22;12.20;87.85
71436;SHT31;59251;51.326;12.370;2023-05-20T03:26:48;12.14;88.08
71436;SHT31;59251;51.326;12.370;2023-05-20T03:29:13;12.13;88.23
71436;SHT31;59251;51.326;12.370;2023-05-20T03:31:38;12.06;88.42
71436;SHT31;59251;51.326;12.370;2023-05-20T03:34:04;12.03;88.65
71436;SHT31;59251;51.326;12.370;2023-05-20T03:36:29;12.02;88.76
71436;SHT31;59251;51.326;12.370;2023-05-20T03:38:55;12.00;88.73
71436;SHT31;59251;51.326;12.370;2023-05-20T03:41:20;12.03;88.77
71436;SHT31;59251;51.326;12.370;2023-05-20T03:43:46;11.97;88.90
71436;SHT31;59251;51.326;12.370;2023-05-20T03:46:11;11.90;89.13
71436;SHT31;59251;51.326;12.370;2023-05-20T03:48:37;11.90;89.35
71436;SHT31;59251;51.326;12.370;2023-05-20T03:51:02;11.89;89.21
71436;SHT31;59251;51.326;12.370;2023-05-20T03:53:28;11.86;89.36
71436;SHT31;59251;51.326;12.370;2023-05-20T03:55:53;11.85;89.52
71436;SHT31;59251;51.326;12.370;2023-05-20T03:58:18;11.87;89.52
71436;SHT31;59251;51.326;12.370;2023-05-20T04:00:45;11.81;89.72
71436;SHT31;59251;51.326;12.370;2023-05-20T04:03:11;11.85;89.70
71436;SHT31;59251;51.326;12.370;2023-05-20T04:05:37;11.82;89.67
71436;SHT31;59251;51.326;12.370;2023-05-20T04:08:02;11.96;89.31
71436;SHT31;59251;51.326;12.370;2023-05-20T04:10:29;11.96;89.29
71436;SHT31;59251;51.326;12.370;2023-05-20T04:12:56;12.00;89.18
71436;SHT31;59251;51.326;12.370;2023-05-20T04:15:22;12.07;88.96
71436;SHT31;59251;51.326;12.370;2023-05-20T04:17:50;12.13;88.64
71436;SHT31;59251;51.326;12.370;2023-05-20T04:20:17;12.05;89.00
71436;SHT31;59251;51.326;12.370;2023-05-20T04:22:43;12.10;88.69
71436;SHT31;59251;51.326;12.370;2023-05-20T04:25:08;12.20;88.43
71436;SHT31;59251;51.326;12.370;2023-05-20T04:27:34;12.27;88.18
71436;SHT31;59251;51.326;12.370;2023-05-20T04:29:59;12.32;88.11
71436;SHT31;59251;51.326;12.370;2023-05-20T04:32:26;12.43;87.85
71436;SHT31;59251;51.326;12.370;2023-05-20T04:34:52;12.27;88.14
71436;SHT31;59251;51.326;12.370;2023-05-20T04:37:19;12.36;87.95
71436;SHT31;59251;51.326;12.370;2023-05-20T04:39:45;12.40;87.60
71436;SHT31;59251;51.326;12.370;2023-05-20T04:42:12;12.60;87.08
71436;SHT31;59251;51.326;12.370;2023-05-20T04:44:37;12.51;87.43
71436;SHT31;59251;51.326;12.370;2023-05-20T04:47:03;12.53;87.05
71436;SHT31;59251;51.326;12.370;2023-05-20T04:49:32;12.40;87.48
71436;SHT31;59251;51.326;12.370;2023-05-20T04:51:57;12.62;87.06
71436;SHT31;59251;51.326;12.370;2023-05-20T04:54:23;12.60;86.95
71436;SHT31;59251;51.326;12.370;2023-05-20T04:56:49;12.69;86.59
71436;SHT31;59251;51.326;12.370;2023-05-20T04:59:15;12.68;86.85
71436;SHT31;59251;51.326;12.370;2023-05-20T05:01:40;12.75;86.41
71436;SHT31;59251;51.326;12.370;2023-05-20T05:04:06;12.61;86.97
71436;SHT31;59251;51.326;12.370;2023-05-20T05:06:31;12.78;86.37
71436;SHT31;59251;51.326;12.370;2023-05-20T05:08:57;12.87;86.23
71436;SHT31;59251;51.326;12.370;2023-05-20T05:11:22;13.02;85.62
71436;SHT31;59251;51.326;12.370;2023-05-20T05:13:47;12.88;86.14
71436;SHT31;59251;51.326;12.370;2023-05-20T05:16:13;12.85;86.03
71436;SHT31;59251;51.326;12.370;2023-05-20T05:18:38;12.91;85.67
71436;SHT31;59251;51.326;12.370;2023-05-20T05:21:05;12.91;85.65
71436;SHT31;59251;51.326;12.370;2023-05-20T05:23:31;13.01;85.44
71436;SHT31;59251;51.326;12.370;2023-05-20T05:25:57;12.85;86.11
71436;SHT31;59251;51.326;12.370;2023-05-20T05:28:22;12.80;86.53
71436;SHT31;59251;51.326;12.370;2023-05-20T05:30:48;12.85;86.40
71436;SHT31;59251;51.326;12.370;2023-05-20T05:33:14;12.93;86.17
71436;SHT31;59251;51.326;12.370;2023-05-20T05:35:40;13.05;85.84
71436;SHT31;59251;51.326;12.370;2023-05-20T05:38:06;12.88;85.93
71436;SHT31;59251;51.326;12.370;2023-05-20T05:40:31;12.89;86.20
71436;SHT31;59251;51.326;12.370;2023-05-20T05:42:57;13.09;85.26
71436;SHT31;59251;51.326;12.370;2023-05-20T05:45:22;13.06;85.49
71436;SHT31;59251;51.326;12.370;2023-05-20T05:47:47;13.39;84.77
71436;SHT31;59251;51.326;12.370;2023-05-20T05:50:13;13.39;84.36
71436;SHT31;59251;51.326;12.370;2023-05-20T05:52:38;13.56;83.89
71436;SHT31;59251;51.326;12.370;2023-05-20T05:55:03;13.61;83.77
71436;SHT31;59251;51.326;12.370;2023-05-20T05:57:29;13.70;83.27
71436;SHT31;59251;51.326;12.370;2023-05-20T05:59:55;13.51;83.92
71436;SHT31;59251;51.326;12.370;2023-05-20T06:02:21;13.33;84.70
71436;SHT31;59251;51.326;12.370;2023-05-20T06:04:46;13.47;84.48
71436;SHT31;59251;51.326;12.370;2023-05-20T06:07:12;13.44;84.22
71436;SHT31;59251;51.326;12.370;2023-05-20T06:09:37;13.56;84.22
71436;SHT31;59251;51.326;12.370;2023-05-20T06:12:03;13.63;83.92
71436;SHT31;59251;51.326;12.370;2023-05-20T06:14:28;13.39;84.57
71436;SHT31;59251;51.326;12.370;2023-05-20T06:16:54;13.44;84.46
71436;SHT31;59251;51.326;12.370;2023-05-20T06:19:19;13.51;84.01
71436;SHT31;59251;51.326;12.370;2023-05-20T06:21:45;13.71;83.58
71436;SHT31;59251;51.326;12.370;2023-05-20T06:24:10;13.73;83.58
71436;SHT31;59251;51.326;12.370;2023-05-20T06:26:35;13.87;83.04
71436;SHT31;59251;51.326;12.370;2023-05-20T06:29:02;13.78;83.34
71436;SHT31;59251;51.326;12.370;2023-05-20T06:31:27;13.79;83.40
71436;SHT31;59251;51.326;12.370;2023-05-20T06:33:54;13.68;83.93
71436;SHT31;59251;51.326;12.370;2023-05-20T06:36:20;13.88;83.45
71436;SHT31;59251;51.326;12.370;2023-05-20T06:38:45;13.75;83.36
71436;SHT31;59251;51.326;12.370;2023-05-20T06:41:11;13.73;83.82
71436;SHT31;59251;51.326;12.370;2023-05-20T06:43:36;13.75;83.71
71436;SHT31;59251;51.326;12.370;2023-05-20T06:46:02;13.77;83.43
71436;SHT31;59251;51.326;12.370;2023-05-20T06:48:27;13.85;83.56
71436;SHT31;59251;51.326;12.370;2023-05-20T06:50:52;14.05;82.66
71436;SHT31;59251;51.326;12.370;2023-05-20T06:53:18;14.00;82.72
71436;SHT31;59251;51.326;12.370;2023-05-20T06:55:43;13.63;84.34
71436;SHT31;59251;51.326;12.370;2023-05-20T06:58:08;13.44;84.70
71436;SHT31;59251;51.326;12.370;2023-05-20T07:00:34;13.43;84.79
71436;SHT31;59251;51.326;12.370;2023-05-20T07:02:59;13.27;85.04
71436;SHT31;59251;51.326;12.370;2023-05-20T07:05:25;13.51;84.46
71436;SHT31;59251;51.326;12.370;2023-05-20T07:07:53;13.84;83.57
71436;SHT31;59251;51.326;12.370;2023-05-20T07:10:18;13.74;83.82
71436;SHT31;59251;51.326;12.370;2023-05-20T07:12:44;13.71;83.76
71436;SHT31;59251;51.326;12.370;2023-05-20T07:15:09;13.50;84.68
71436;SHT31;59251;51.326;12.370;2023-05-20T07:17:35;13.54;84.61
71436;SHT31;59251;51.326;12.370;2023-05-20T07:20:01;13.56;84.87
71436;SHT31;59251;51.326;12.370;2023-05-20T07:22:26;13.49;85.06
71436;SHT31;59251;51.326;12.370;2023-05-20T07:24:51;13.40;85.46
71436;SHT31;59251;51.326;12.370;2023-05-20T07:27:17;13.26;85.86
71436;SHT31;59251;51.326;12.370;2023-05-20T07:29:42;13.13;86.10
71436;SHT31;59251;51.326;12.370;2023-05-20T07:32:08;13.60;84.85
71436;SHT31;59251;51.326;12.370;2023-05-20T07:34:34;13.66;84.65
71436;SHT31;59251;51.326;12.370;2023-05-20T07:36:59;13.73;84.07
71436;SHT31;59251;51.326;12.370;2023-05-20T07:39:25;13.85;84.01
71436;SHT31;59251;51.326;12.370;2023-05-20T07:41:51;13.84;84.16
71436;SHT31;59251;51.326;12.370;2023-05-20T07:44:16;14.19;83.26
71436;SHT31;59251;51.326;12.370;2023-05-20T07:46:47;14.18;82.95
71436;SHT31;59251;51.326;12.370;2023-05-20T07:49:13;14.46;82.14
71436;SHT31;59251;51.326;12.370;2023-05-20T07:51:38;14.74;81.44
71436;SHT31;59251;51.326;12.370;2023-05-20T07:54:04;14.81;80.60
71436;SHT31;59251;51.326;12.370;2023-05-20T07:56:30;15.01;80.31
71436;SHT31;59251;51.326;12.370;2023-05-20T07:58:57;14.93;80.51
71436;SHT31;59251;51.326;12.370;2023-05-20T08:01:23;14.87;80.95
71436;SHT31;59251;51.326;12.370;2023-05-20T08:03:49;15.25;79.81
71436;SHT31;59251;51.326;12.370;2023-05-20T08:06:14;14.91;80.26
71436;SHT31;59251;51.326;12.370;2023-05-20T08:08:41;14.84;80.76
71436;SHT31;59251;51.326;12.370;2023-05-20T08:11:07;15.67;78.41
71436;SHT31;59251;51.326;12.370;2023-05-20T08:13:32;15.42;79.18
71436;SHT31;59251;51.326;12.370;2023-05-20T08:15:58;15.66;78.36
71436;SHT31;59251;51.326;12.370;2023-05-20T08:18:23;16.06;77.58
71436;SHT31;59251;51.326;12.370;2023-05-20T08:20:49;15.86;78.21
71436;SHT31;59251;51.326;12.370;2023-05-20T08:23:15;15.55;79.02
71436;SHT31;59251;51.326;12.370;2023-05-20T08:25:40;15.69;78.37
71436;SHT31;59251;51.326;12.370;2023-05-20T08:28:06;16.16;77.24
71436;SHT31;59251;51.326;12.370;2023-05-20T08:30:32;15.98;77.21
71436;SHT31;59251;51.326;12.370;2023-05-20T08:32:58;15.87;77.43
71436;SHT31;59251;51.326;12.370;2023-05-20T08:35:24;15.60;78.04
71436;SHT31;59251;51.326;12.370;2023-05-20T08:37:49;15.91;77.64
71436;SHT31;59251;51.326;12.370;2023-05-20T08:40:15;15.80;77.89
71436;SHT31;59251;51.326;12.370;2023-05-20T08:42:42;15.53;78.08
71436;SHT31;59251;51.326;12.370;2023-05-20T08:45:10;15.93;77.05
71436;SHT31;59251;51.326;12.370;2023-05-20T08:47:40;15.91;77.48
71436;SHT31;59251;51.326;12.370;2023-05-20T08:50:08;16.16;76.69
71436;SHT31;59251;51.326;12.370;2023-05-20T08:52:35;16.55;75.71
71436;SHT31;59251;51.326;12.370;2023-05-20T08:55:01;16.54;76.46
71436;SHT31;59251;51.326;12.370;2023-05-20T08:57:27;15.76;78.03
71436;SHT31;59251;51.326;12.370;2023-05-20T08:59:54;16.36;76.65
71436;SHT31;59251;51.326;12.370;2023-05-20T09:02:19;17.10;74.84
71436;SHT31;59251;51.326;12.370;2023-05-20T09:04:44;16.90;74.52
71436;SHT31;59251;51.326;12.370;2023-05-20T09:07:10;16.62;76.08
71436;SHT31;59251;51.326;12.370;2023-05-20T09:09:35;16.97;74.75
71436;SHT31;59251;51.326;12.370;2023-05-20T09:12:01;16.61;75.51
71436;SHT31;59251;51.326;12.370;2023-05-20T09:14:28;16.89;75.51
71436;SHT31;59251;51.326;12.370;2023-05-20T09:16:54;17.12;73.90
71436;SHT31;59251;51.326;12.370;2023-05-20T09:19:22;17.04;73.93
71436;SHT31;59251;51.326;12.370;2023-05-20T09:21:51;17.42;73.50
71436;SHT31;59251;51.326;12.370;2023-05-20T09:24:21;16.76;74.61
71436;SHT31;59251;51.326;12.370;2023-05-20T09:26:47;16.71;75.47
71436;SHT31;59251;51.326;12.370;2023-05-20T09:29:12;16.28;76.21
71436;SHT31;59251;51.326;12.370;2023-05-20T09:31:38;15.83;77.51
71436;SHT31;59251;51.326;12.370;2023-05-20T09:34:04;16.47;76.50
71436;SHT31;59251;51.326;12.370;2023-05-20T09:36:31;16.49;76.39
71436;SHT31;59251;51.326;12.370;2023-05-20T09:39:00;16.96;75.73
71436;SHT31;59251;51.326;12.370;2023-05-20T09:41:32;16.83;75.25
71436;SHT31;59251;51.326;12.370;2023-05-20T09:43:59;16.42;76.24
71436;SHT31;59251;51.326;12.370;2023-05-20T09:46:25;16.97;74.80
71436;SHT31;59251;51.326;12.370;2023-05-20T09:48:51;17.09;74.35
71436;SHT31;59251;51.326;12.370;2023-05-20T09:51:17;16.90;74.52
71436;SHT31;59251;51.326;12.370;2023-05-20T09:53:43;16.48;75.89
71436;SHT31;59251;51.326;12.370;2023-05-20T09:56:08;17.04;74.90
71436;SHT31;59251;51.326;12.370;2023-05-20T09:58:37;16.54;76.68
71436;SHT31;59251;51.326;12.370;2023-05-20T10:01:05;17.30;74.58
71436;SHT31;59251;51.326;12.370;2023-05-20T10:03:31;16.96;75.10
71436;SHT31;59251;51.326;12.370;2023-05-20T10:09:35;17.90;72.75
71436;SHT31;59251;51.326;12.370;2023-05-20T10:11:44;17.19;74.52
71436;SHT31;59251;51.326;12.370;2023-05-20T10:14:39;16.99;74.48
71436;SHT31;59251;51.326;12.370;2023-05-20T10:17:24;17.55;73.72
71436;SHT31;59251;51.326;12.370;2023-05-20T10:19:58;17.27;74.69
71436;SHT31;59251;51.326;12.370;2023-05-20T10:22:28;17.52;73.60
71436;SHT31;59251;51.326;12.370;2023-05-20T10:24:59;17.16;74.72
71436;SHT31;59251;51.326;12.370;2023-05-20T10:27:25;17.21;74.51
71436;SHT31;59251;51.326;12.370;2023-05-20T10:29:55;17.47;74.49
71436;SHT31;59251;51.326;12.370;2023-05-20T10:32:31;17.86;73.32
71436;SHT31;59251;51.326;12.370;2023-05-20T10:35:04;17.93;73.05
71436;SHT31;59251;51.326;12.370;2023-05-20T10:37:41;17.95;72.73
71436;SHT31;59251;51.326;12.370;2023-05-20T10:40:09;18.16;72.82
71436;SHT31;59251;51.326;12.370;2023-05-20T10:42:39;18.03;73.22
71436;SHT31;59251;51.326;12.370;2023-05-20T10:45:09;18.22;72.84
71436;SHT31;59251;51.326;12.370;2023-05-20T10:47:34;18.53;71.27
71436;SHT31;59251;51.326;12.370;2023-05-20T10:50:00;18.84;70.81
71436;SHT31;59251;51.326;12.370;2023-05-20T10:52:27;19.18;70.42
71436;SHT31;59251;51.326;12.370;2023-05-20T10:57:19;19.08;70.07
71436;SHT31;59251;51.326;12.370;2023-05-20T10:59:45;18.74;70.26
71436;SHT31;59251;51.326;12.370;2023-05-20T11:02:14;19.08;70.16
71436;SHT31;59251;51.326;12.370;2023-05-20T11:04:41;19.57;68.74
71436;SHT31;59251;51.326;12.370;2023-05-20T11:07:07;19.56;68.90
71436;SHT31;59251;51.326;12.370;2023-05-20T11:09:32;19.78;68.15
71436;SHT31;59251;51.326;12.370;2023-05-20T11:11:59;19.54;68.83
71436;SHT31;59251;51.326;12.370;2023-05-20T11:14:27;19.61;68.39
71436;SHT31;59251;51.326;12.370;2023-05-20T11:16:55;19.91;67.88
71436;SHT31;59251;51.326;12.370;2023-05-20T11:19:20;20.21;66.70
71436;SHT31;59251;51.326;12.370;2023-05-20T11:21:46;20.33;66.47
71436;SHT31;59251;51.326;12.370;2023-05-20T11:24:12;20.50;66.04
71436;SHT31;59251;51.326;12.370;2023-05-20T11:26:38;20.90;64.93
71436;SHT31;59251;51.326;12.370;2023-05-20T11:29:03;20.73;64.82
71436;SHT31;59251;51.326;12.370;2023-05-20T11:31:32;22.09;62.73
71436;SHT31;59251;51.326;12.370;2023-05-20T11:34:00;22.33;61.32
71436;SHT31;59251;51.326;12.370;2023-05-20T11:36:27;22.37;61.25
71436;SHT31;59251;51.326;12.370;2023-05-20T11:38:56;21.62;62.84
71436;SHT31;59251;51.326;12.370;2023-05-20T11:41:26;21.90;62.74
71436;SHT31;59251;51.326;12.370;2023-05-20T11:43:58;21.03;64.79
71436;SHT31;59251;51.326;12.370;2023-05-20T11:46:24;20.90;65.27
71436;SHT31;59251;51.326;12.370;2023-05-20T11:48:53;21.43;63.62
71436;SHT31;59251;51.326;12.370;2023-05-20T11:51:28;21.55;63.34
71436;SHT31;59251;51.326;12.370;2023-05-20T11:54:01;21.18;64.11
71436;SHT31;59251;51.326;12.370;2023-05-20T11:56:31;20.57;66.10
71436;SHT31;59251;51.326;12.370;2023-05-20T11:58:58;20.98;64.86
71436;SHT31;59251;51.326;12.370;2023-05-20T12:01:24;21.41;64.12
71436;SHT31;59251;51.326;12.370;2023-05-20T12:03:49;21.67;63.44
71436;SHT31;59251;51.326;12.370;2023-05-20T12:06:16;22.84;61.04
71436;SHT31;59251;51.326;12.370;2023-05-20T12:08:41;22.24;62.28
71436;SHT31;59251;51.326;12.370;2023-05-20T12:11:07;22.68;60.85
71436;SHT31;59251;51.326;12.370;2023-05-20T12:13:32;23.55;59.70
71436;SHT31;59251;51.326;12.370;2023-05-20T12:15:57;22.92;60.93
71436;SHT31;59251;51.326;12.370;2023-05-20T12:18:23;22.34;62.32
71436;SHT31;59251;51.326;12.370;2023-05-20T12:20:48;22.33;62.49
71436;SHT31;59251;51.326;12.370;2023-05-20T12:23:14;23.27;60.79
71436;SHT31;59251;51.326;12.370;2023-05-20T12:25:39;22.20;61.66
71436;SHT31;59251;51.326;12.370;2023-05-20T12:28:04;22.85;61.22
71436;SHT31;59251;51.326;12.370;2023-05-20T12:30:30;23.60;59.82
71436;SHT31;59251;51.326;12.370;2023-05-20T12:32:56;25.10;56.44
71436;SHT31;59251;51.326;12.370;2023-05-20T12:35:35;23.84;58.41
71436;SHT31;59251;51.326;12.370;2023-05-20T12:38:01;24.08;58.27
71436;SHT31;59251;51.326;12.370;2023-05-20T12:40:26;24.73;57.18
71436;SHT31;59251;51.326;12.370;2023-05-20T12:42:51;24.16;57.89
71436;SHT31;59251;51.326;12.370;2023-05-20T12:45:17;23.07;60.98
71436;SHT31;59251;51.326;12.370;2023-05-20T12:47:43;22.17;63.01
71436;SHT31;59251;51.326;12.370;2023-05-20T12:50:08;24.01;58.98
71436;SHT31;59251;51.326;12.370;2023-05-20T12:52:34;23.99;59.15
71436;SHT31;59251;51.326;12.370;2023-05-20T12:54:59;23.22;60.13
71436;SHT31;59251;51.326;12.370;2023-05-20T12:57:25;22.28;62.49
71436;SHT31;59251;51.326;12.370;2023-05-20T12:59:50;23.27;60.35
71436;SHT31;59251;51.326;12.370;2023-05-20T13:02:16;23.31;60.58
71436;SHT31;59251;51.326;12.370;2023-05-20T13:04:41;23.85;59.11
71436;SHT31;59251;51.326;12.370;2023-05-20T13:07:07;23.61;60.25
71436;SHT31;59251;51.326;12.370;2023-05-20T13:09:32;24.70;57.75
71436;SHT31;59251;51.326;12.370;2023-05-20T13:11:59;24.78;56.13
71436;SHT31;59251;51.326;12.370;2023-05-20T13:14:25;23.57;59.39
71436;SHT31;59251;51.326;12.370;2023-05-20T13:16:50;24.77;57.10
71436;SHT31;59251;51.326;12.370;2023-05-20T13:19:23;25.53;55.51
71436;SHT31;59251;51.326;12.370;2023-05-20T13:21:50;25.26;56.29
71436;SHT31;59251;51.326;12.370;2023-05-20T13:24:16;23.85;57.83
71436;SHT31;59251;51.326;12.370;2023-05-20T13:26:42;24.01;58.94
71436;SHT31;59251;51.326;12.370;2023-05-20T13:29:08;23.78;58.62
71436;SHT31;59251;51.326;12.370;2023-05-20T13:31:33;24.84;56.94
71436;SHT31;59251;51.326;12.370;2023-05-20T13:33:59;24.47;58.03
71436;SHT31;59251;51.326;12.370;2023-05-20T13:36:25;23.50;60.54
71436;SHT31;59251;51.326;12.370;2023-05-20T13:38:50;23.51;59.36
71436;SHT31;59251;51.326;12.370;2023-05-20T13:41:16;24.68;57.93
71436;SHT31;59251;51.326;12.370;2023-05-20T13:43:41;25.69;55.42
71436;SHT31;59251;51.326;12.370;2023-05-20T13:46:07;26.04;55.00
71436;SHT31;59251;51.326;12.370;2023-05-20T13:48:33;25.50;55.28
71436;SHT31;59251;51.326;12.370;2023-05-20T13:50:58;24.97;56.10
71436;SHT31;59251;51.326;12.370;2023-05-20T13:53:26;25.76;54.87
71436;SHT31;59251;51.326;12.370;2023-05-20T13:55:51;26.59;53.46
71436;SHT31;59251;51.326;12.370;2023-05-20T13:58:17;25.42;56.00
71436;SHT31;59251;51.326;12.370;2023-05-20T14:00:42;26.32;54.41
71436;SHT31;59251;51.326;12.370;2023-05-20T14:03:07;26.00;54.59
71436;SHT31;59251;51.326;12.370;2023-05-20T14:05:34;25.15;56.37
71436;SHT31;59251;51.326;12.370;2023-05-20T14:08:00;26.05;54.87
71436;SHT31;59251;51.326;12.370;2023-05-20T14:10:26;25.74;55.68
71436;SHT31;59251;51.326;12.370;2023-05-20T14:12:52;26.97;52.93
71436;SHT31;59251;51.326;12.370;2023-05-20T14:15:19;25.74;54.77
71436;SHT31;59251;51.326;12.370;2023-05-20T14:17:45;26.55;53.62
71436;SHT31;59251;51.326;12.370;2023-05-20T14:20:10;27.13;52.78
71436;SHT31;59251;51.326;12.370;2023-05-20T14:22:36;26.07;55.50
71436;SHT31;59251;51.326;12.370;2023-05-20T14:25:01;26.16;54.48
71436;SHT31;59251;51.326;12.370;2023-05-20T14:27:28;26.80;53.26
71436;SHT31;59251;51.326;12.370;2023-05-20T14:29:53;26.82;53.13
71436;SHT31;59251;51.326;12.370;2023-05-20T14:32:19;26.82;53.30
71436;SHT31;59251;51.326;12.370;2023-05-20T14:34:44;27.54;51.76
71436;SHT31;59251;51.326;12.370;2023-05-20T14:37:09;27.50;52.46
71436;SHT31;59251;51.326;12.370;2023-05-20T14:39:36;25.21;55.48
71436;SHT31;59251;51.326;12.370;2023-05-20T14:42:01;25.80;54.71
71436;SHT31;59251;51.326;12.370;2023-05-20T14:44:27;27.26;52.32
71436;SHT31;59251;51.326;12.370;2023-05-20T14:46:53;26.62;53.16
71436;SHT31;59251;51.326;12.370;2023-05-20T14:49:18;26.42;53.72
71436;SHT31;59251;51.326;12.370;2023-05-20T14:51:44;26.25;54.33
71436;SHT31;59251;51.326;12.370;2023-05-20T14:54:09;26.10;54.64
71436;SHT31;59251;51.326;12.370;2023-05-20T14:56:35;26.99;51.83
71436;SHT31;59251;51.326;12.370;2023-05-20T14:59:00;27.52;52.03
71436;SHT31;59251;51.326;12.370;2023-05-20T15:01:25;26.65;52.23
71436;SHT31;59251;51.326;12.370;2023-05-20T15:03:51;25.80;54.67
71436;SHT31;59251;51.326;12.370;2023-05-20T15:06:16;25.76;54.85
71436;SHT31;59251;51.326;12.370;2023-05-20T15:08:42;25.73;54.85
71436;SHT31;59251;51.326;12.370;2023-05-20T15:11:07;26.44;53.93
71436;SHT31;59251;51.326;12.370;2023-05-20T15:13:32;27.33;52.22
71436;SHT31;59251;51.326;12.370;2023-05-20T15:15:58;26.90;52.93